sensor_id;sensor_type;location;lat;lon;timestamp;pressure;altitude;pressure_sealevel;temperature;humidity
27805;BME280;15183;51.350;11.102;2023-06-26T00:02:12;100019.66;;;23.96;50.18
27805;BME280;15183;51.350;11.102;2023-06-26T00:04:39;100027.03;;;24.04;49.73
27805;BME280;15183;51.350;11.102;2023-06-26T00:07:05;100027.66;;;24.01;50.42
27805;BME280;15183;51.350;11.102;2023-06-26T00:09:32;100029.38;;;23.97;50.27
27805;BME280;15183;51.350;11.102;2023-06-26T00:11:58;100029.69;;;23.95;50.43
27805;BME280;15183;51.350;11.102;2023-06-26T00:14:25;100019.31;;;23.89;49.87
27805;BME280;15183;51.350;11.102;2023-06-26T00:16:52;100005.59;;;23.85;49.74
27805;BME280;15183;51.350;11.102;2023-06-26T00:19:19;100007.53;;;23.93;49.55
27805;BME280;15183;51.350;11.102;2023-06-26T00:21:45;100017.81;;;24.05;50.35
27805;BME280;15183;51.350;11.102;2023-06-26T00:24:14;100021.63;;;24.04;49.87
27805;BME280;15183;51.350;11.102;2023-06-26T00:26:41;100020.63;;;24.00;50.07
27805;BME280;15183;51.350;11.102;2023-06-26T00:29:07;100012.66;;;23.95;50.26
27805;BME280;15183;51.350;11.102;2023-06-26T00:31:33;100001.44;;;23.79;49.86
27805;BME280;15183;51.350;11.102;2023-06-26T00:34:01;100007.41;;;23.67;50.73
27805;BME280;15183;51.350;11.102;2023-06-26T00:36:28;99997.59;;;23.48;50.79
27805;BME280;15183;51.350;11.102;2023-06-26T00:38:54;99998.19;;;23.45;50.92
27805;BME280;15183;51.350;11.102;2023-06-26T00:41:21;100007.31;;;23.49;50.36
27805;BME280;15183;51.350;11.102;2023-06-26T00:43:48;99997.91;;;23.47;50.83
27805;BME280;15183;51.350;11.102;2023-06-26T00:46:14;100009.91;;;23.54;50.97
27805;BME280;15183;51.350;11.102;2023-06-26T00:48:46;100007.13;;;23.46;51.48
27805;BME280;15183;51.350;11.102;2023-06-26T00:51:14;100004.41;;;23.46;50.47
27805;BME280;15183;51.350;11.102;2023-06-26T00:53:42;100006.81;;;23.47;50.74
27805;BME280;15183;51.350;11.102;2023-06-26T00:56:09;100003.50;;;23.50;51.12
27805;BME280;15183;51.350;11.102;2023-06-26T00:58:36;99993.72;;;23.40;50.68
27805;BME280;15183;51.350;11.102;2023-06-26T01:01:02;99984.44;;;23.33;51.28
27805;BME280;15183;51.350;11.102;2023-06-26T01:03:31;99991.78;;;23.32;50.74
27805;BME280;15183;51.350;11.102;2023-06-26T01:05:59;99996.72;;;23.39;51.08
27805;BME280;15183;51.350;11.102;2023-06-26T01:08:27;99988.00;;;23.42;51.19
27805;BME280;15183;51.350;11.102;2023-06-26T01:10:53;99991.50;;;23.42;50.79
27805;BME280;15183;51.350;11.102;2023-06-26T01:13:20;99993.91;;;23.44;51.04
27805;BME280;15183;51.350;11.102;2023-06-26T01:15:47;99987.34;;;23.36;50.71
27805;BME280;15183;51.350;11.102;2023-06-26T01:18:15;99990.22;;;23.40;51.21
27805;BME280;15183;51.350;11.102;2023-06-26T01:20:43;99990.56;;;23.47;51.04
27805;BME280;15183;51.350;11.102;2023-06-26T01:23:22;99983.41;;;23.42;50.71
27805;BME280;15183;51.350;11.102;2023-06-26T01:26:20;99982.56;;;23.33;50.66
27805;BME280;15183;51.350;11.102;2023-06-26T01:28:49;99978.06;;;23.29;51.37
27805;BME280;15183;51.350;11.102;2023-06-26T01:31:17;99980.75;;;23.29;51.18
27805;BME280;15183;51.350;11.102;2023-06-26T01:33:44;99972.16;;;23.26;51.43
27805;BME280;15183;51.350;11.102;2023-06-26T01:36:11;99964.53;;;23.29;51.29
27805;BME280;15183;51.350;11.102;2023-06-26T01:38:37;99953.53;;;23.25;50.95
27805;BME280;15183;51.350;11.102;2023-06-26T01:41:05;99948.72;;;23.22;51.02
27805;BME280;15183;51.350;11.102;2023-06-26T01:44:07;99960.72;;;23.30;51.37
27805;BME280;15183;51.350;11.102;2023-06-26T01:47:03;99958.84;;;23.30;50.74
27805;BME280;15183;51.350;11.102;2023-06-26T01:50:06;99957.41;;;23.33;50.67
27805;BME280;15183;51.350;11.102;2023-06-26T01:52:44;99952.81;;;23.33;50.83
27805;BME280;15183;51.350;11.102;2023-06-26T01:55:32;99957.13;;;23.34;50.65
27805;BME280;15183;51.350;11.102;2023-06-26T01:58:02;99951.50;;;23.31;51.12
27805;BME280;15183;51.350;11.102;2023-06-26T02:00:29;99957.63;;;23.22;51.21
27805;BME280;15183;51.350;11.102;2023-06-26T02:02:57;99953.75;;;23.15;51.08
27805;BME280;15183;51.350;11.102;2023-06-26T02:05:24;99960.91;;;23.10;51.04
27805;BME280;15183;51.350;11.102;2023-06-26T02:07:50;99947.00;;;23.03;51.36
27805;BME280;15183;51.350;11.102;2023-06-26T02:10:17;99949.22;;;23.01;51.59
27805;BME280;15183;51.350;11.102;2023-06-26T02:12:44;99933.91;;;22.96;51.23
27805;BME280;15183;51.350;11.102;2023-06-26T02:15:10;99949.72;;;23.03;51.30
27805;BME280;15183;51.350;11.102;2023-06-26T02:17:37;99949.72;;;23.03;51.17
27805;BME280;15183;51.350;11.102;2023-06-26T02:20:04;99948.41;;;23.01;51.39
27805;BME280;15183;51.350;11.102;2023-06-26T02:22:32;99950.22;;;23.05;51.46
27805;BME280;15183;51.350;11.102;2023-06-26T02:24:58;99944.59;;;23.02;51.45
27805;BME280;15183;51.350;11.102;2023-06-26T02:27:24;99950.00;;;23.02;51.45
27805;BME280;15183;51.350;11.102;2023-06-26T02:29:51;99948.53;;;22.95;51.76
27805;BME280;15183;51.350;11.102;2023-06-26T02:32:18;99943.88;;;22.87;51.30
27805;BME280;15183;51.350;11.102;2023-06-26T02:34:44;99929.78;;;22.76;51.69
27805;BME280;15183;51.350;11.102;2023-06-26T02:37:11;99950.50;;;22.81;51.46
27805;BME280;15183;51.350;11.102;2023-06-26T02:39:37;99935.94;;;22.68;51.62
27805;BME280;15183;51.350;11.102;2023-06-26T02:42:04;99932.53;;;22.62;52.00
27805;BME280;15183;51.350;11.102;2023-06-26T02:44:30;99935.13;;;22.67;51.85
27805;BME280;15183;51.350;11.102;2023-06-26T02:46:57;99930.94;;;22.61;52.17
27805;BME280;15183;51.350;11.102;2023-06-26T02:49:23;99934.00;;;22.68;51.88
27805;BME280;15183;51.350;11.102;2023-06-26T02:51:50;99937.03;;;22.67;51.91
27805;BME280;15183;51.350;11.102;2023-06-26T02:54:16;99937.19;;;22.70;51.93
27805;BME280;15183;51.350;11.102;2023-06-26T02:56:43;99915.72;;;22.65;51.56
27805;BME280;15183;51.350;11.102;2023-06-26T02:59:09;99915.09;;;22.68;51.63
27805;BME280;15183;51.350;11.102;2023-06-26T03:01:35;99923.13;;;22.74;51.72
27805;BME280;15183;51.350;11.102;2023-06-26T03:04:02;99912.72;;;22.67;51.60
27805;BME280;15183;51.350;11.102;2023-06-26T03:06:28;99923.59;;;22.76;51.97
27805;BME280;15183;51.350;11.102;2023-06-26T03:08:55;99911.91;;;22.66;51.54
27805;BME280;15183;51.350;11.102;2023-06-26T03:11:21;99911.28;;;22.69;51.57
27805;BME280;15183;51.350;11.102;2023-06-26T03:13:48;99904.41;;;22.63;51.79
27805;BME280;15183;51.350;11.102;2023-06-26T03:16:14;99903.16;;;22.61;51.82
27805;BME280;15183;51.350;11.102;2023-06-26T03:18:40;99908.22;;;22.62;52.03
27805;BME280;15183;51.350;11.102;2023-06-26T03:21:08;99916.03;;;22.64;52.21
27805;BME280;15183;51.350;11.102;2023-06-26T03:23:35;99909.69;;;22.68;52.03
27805;BME280;15183;51.350;11.102;2023-06-26T03:26:01;99921.81;;;22.71;52.07
27805;BME280;15183;51.350;11.102;2023-06-26T03:28:28;99915.09;;;22.68;52.47
27805;BME280;15183;51.350;11.102;2023-06-26T03:30:54;99905.84;;;22.61;52.57
27805;BME280;15183;51.350;11.102;2023-06-26T03:33:20;99917.63;;;22.65;52.69
27805;BME280;15183;51.350;11.102;2023-06-26T03:35:47;99908.72;;;22.64;52.97
27805;BME280;15183;51.350;11.102;2023-06-26T03:38:13;99906.94;;;22.60;52.61
27805;BME280;15183;51.350;11.102;2023-06-26T03:40:40;99907.56;;;22.57;53.06
27805;BME280;15183;51.350;11.102;2023-06-26T03:43:06;99889.44;;;22.57;53.30
27805;BME280;15183;51.350;11.102;2023-06-26T03:45:33;99909.03;;;22.86;53.18
27805;BME280;15183;51.350;11.102;2023-06-26T03:47:59;99903.44;;;23.05;52.74
27805;BME280;15183;51.350;11.102;2023-06-26T03:50:25;99914.28;;;23.27;52.73
27805;BME280;15183;51.350;11.102;2023-06-26T03:52:52;99898.94;;;23.46;52.86
27805;BME280;15183;51.350;11.102;2023-06-26T03:55:21;99909.88;;;23.72;51.86
27805;BME280;15183;51.350;11.102;2023-06-26T03:57:48;99903.75;;;23.98;52.05
27805;BME280;15183;51.350;11.102;2023-06-26T04:00:15;99904.00;;;24.19;51.35
27805;BME280;15183;51.350;11.102;2023-06-26T04:02:42;99903.22;;;24.36;51.40
27805;BME280;15183;51.350;11.102;2023-06-26T04:05:08;99897.00;;;24.45;50.91
27805;BME280;15183;51.350;11.102;2023-06-26T04:07:37;99908.00;;;24.66;51.11
27805;BME280;15183;51.350;11.102;2023-06-26T04:10:05;99907.25;;;24.83;50.65
27805;BME280;15183;51.350;11.102;2023-06-26T04:12:31;99899.09;;;24.92;51.02
27805;BME280;15183;51.350;11.102;2023-06-26T04:14:58;99902.75;;;24.96;50.30
27805;BME280;15183;51.350;11.102;2023-06-26T04:17:24;99902.28;;;25.03;50.68
27805;BME280;15183;51.350;11.102;2023-06-26T04:19:50;99906.56;;;25.12;50.43
27805;BME280;15183;51.350;11.102;2023-06-26T04:22:17;99909.25;;;25.21;50.85
27805;BME280;15183;51.350;11.102;2023-06-26T04:24:43;99912.44;;;25.23;50.25
27805;BME280;15183;51.350;11.102;2023-06-26T04:27:12;99900.16;;;25.26;50.65
27805;BME280;15183;51.350;11.102;2023-06-26T04:29:40;99889.91;;;25.32;50.21
27805;BME280;15183;51.350;11.102;2023-06-26T04:32:06;99897.56;;;25.47;49.81
27805;BME280;15183;51.350;11.102;2023-06-26T04:34:33;99899.34;;;25.73;49.59
27805;BME280;15183;51.350;11.102;2023-06-26T04:37:01;99897.78;;;26.02;49.64
27805;BME280;15183;51.350;11.102;2023-06-26T04:39:30;99894.91;;;26.28;49.48
27805;BME280;15183;51.350;11.102;2023-06-26T04:41:57;99889.34;;;26.46;49.23
27805;BME280;15183;51.350;11.102;2023-06-26T04:44:23;99902.72;;;26.72;49.00
27805;BME280;15183;51.350;11.102;2023-06-26T04:46:50;99888.53;;;26.88;48.66
27805;BME280;15183;51.350;11.102;2023-06-26T04:49:18;99896.66;;;27.09;48.45
27805;BME280;15183;51.350;11.102;2023-06-26T04:51:44;99882.53;;;27.28;48.43
27805;BME280;15183;51.350;11.102;2023-06-26T04:54:11;99892.34;;;27.67;47.76
27805;BME280;15183;51.350;11.102;2023-06-26T04:56:37;99884.59;;;27.94;47.21
27805;BME280;15183;51.350;11.102;2023-06-26T04:59:06;99873.44;;;28.11;47.40
27805;BME280;15183;51.350;11.102;2023-06-26T05:01:32;99870.66;;;28.36;46.67
27805;BME280;15183;51.350;11.102;2023-06-26T05:03:59;99872.63;;;28.64;46.82
27805;BME280;15183;51.350;11.102;2023-06-26T05:06:25;99858.84;;;28.73;46.17
27805;BME280;15183;51.350;11.102;2023-06-26T05:08:52;99878.50;;;28.95;45.79
27805;BME280;15183;51.350;11.102;2023-06-26T05:11:18;99878.81;;;29.06;46.35
27805;BME280;15183;51.350;11.102;2023-06-26T05:13:45;99875.03;;;29.26;45.67
27805;BME280;15183;51.350;11.102;2023-06-26T05:16:11;99875.06;;;29.42;45.76
27805;BME280;15183;51.350;11.102;2023-06-26T05:18:38;99873.19;;;29.63;45.07
27805;BME280;15183;51.350;11.102;2023-06-26T05:21:05;99873.63;;;29.81;44.73
27805;BME280;15183;51.350;11.102;2023-06-26T05:23:33;99874.63;;;30.08;44.52
27805;BME280;15183;51.350;11.102;2023-06-26T05:26:02;99872.41;;;30.33;44.45
27805;BME280;15183;51.350;11.102;2023-06-26T05:28:29;99875.78;;;30.66;43.53
27805;BME280;15183;51.350;11.102;2023-06-26T05:31:00;99875.91;;;30.93;43.38
27805;BME280;15183;51.350;11.102;2023-06-26T05:33:27;99872.00;;;31.17;42.70
27805;BME280;15183;51.350;11.102;2023-06-26T05:35:54;99871.19;;;31.37;42.47
27805;BME280;15183;51.350;11.102;2023-06-26T05:38:21;99877.75;;;31.55;42.38
27805;BME280;15183;51.350;11.102;2023-06-26T05:40:48;99872.47;;;31.70;42.10
27805;BME280;15183;51.350;11.102;2023-06-26T05:43:15;99872.31;;;31.86;42.05
27805;BME280;15183;51.350;11.102;2023-06-26T05:45:41;99870.25;;;32.06;41.77
27805;BME280;15183;51.350;11.102;2023-06-26T05:48:08;99870.13;;;32.29;41.24
27805;BME280;15183;51.350;11.102;2023-06-26T05:50:35;99862.22;;;32.55;40.41
27805;BME280;15183;51.350;11.102;2023-06-26T05:53:02;99862.81;;;32.75;40.22
27805;BME280;15183;51.350;11.102;2023-06-26T05:55:29;99864.28;;;32.99;40.08
27805;BME280;15183;51.350;11.102;2023-06-26T05:57:58;99860.53;;;33.22;39.81
27805;BME280;15183;51.350;11.102;2023-06-26T06:00:27;99858.72;;;33.41;39.07
27805;BME280;15183;51.350;11.102;2023-06-26T06:02:53;99863.97;;;33.60;38.38
27805;BME280;15183;51.350;11.102;2023-06-26T06:05:23;99858.59;;;33.75;38.38
27805;BME280;15183;51.350;11.102;2023-06-26T06:07:50;99867.38;;;34.06;37.38
27805;BME280;15183;51.350;11.102;2023-06-26T06:10:17;99859.22;;;34.24;37.34
27805;BME280;15183;51.350;11.102;2023-06-26T06:12:43;99854.56;;;34.43;37.17
27805;BME280;15183;51.350;11.102;2023-06-26T06:15:09;99857.00;;;34.73;36.93
27805;BME280;15183;51.350;11.102;2023-06-26T06:17:36;99859.41;;;34.93;35.94
27805;BME280;15183;51.350;11.102;2023-06-26T06:20:03;99858.25;;;35.19;35.58
27805;BME280;15183;51.350;11.102;2023-06-26T06:22:30;99851.13;;;35.44;35.71
27805;BME280;15183;51.350;11.102;2023-06-26T06:24:56;99844.44;;;35.63;34.99
27805;BME280;15183;51.350;11.102;2023-06-26T06:27:23;99845.19;;;35.74;34.77
27805;BME280;15183;51.350;11.102;2023-06-26T06:29:49;99858.53;;;35.90;35.15
27805;BME280;15183;51.350;11.102;2023-06-26T06:32:16;99860.84;;;36.10;34.23
27805;BME280;15183;51.350;11.102;2023-06-26T06:34:42;99848.56;;;36.29;34.50
27805;BME280;15183;51.350;11.102;2023-06-26T06:37:08;99846.06;;;36.49;33.60
27805;BME280;15183;51.350;11.102;2023-06-26T06:39:37;99849.94;;;36.63;33.62
27805;BME280;15183;51.350;11.102;2023-06-26T06:42:04;99841.56;;;36.77;33.12
27805;BME280;15183;51.350;11.102;2023-06-26T06:44:31;99841.47;;;36.88;32.52
27805;BME280;15183;51.350;11.102;2023-06-26T06:46:57;99842.16;;;37.03;32.43
27805;BME280;15183;51.350;11.102;2023-06-26T06:49:24;99837.72;;;37.17;32.39
27805;BME280;15183;51.350;11.102;2023-06-26T06:51:50;99820.28;;;37.24;32.31
27805;BME280;15183;51.350;11.102;2023-06-26T06:54:16;99826.78;;;37.48;31.90
27805;BME280;15183;51.350;11.102;2023-06-26T06:56:43;99834.56;;;37.60;31.77
27805;BME280;15183;51.350;11.102;2023-06-26T06:59:10;99827.75;;;37.69;31.33
27805;BME280;15183;51.350;11.102;2023-06-26T07:01:36;99825.69;;;37.76;30.94
27805;BME280;15183;51.350;11.102;2023-06-26T07:04:03;99825.53;;;37.87;31.17
27805;BME280;15183;51.350;11.102;2023-06-26T07:06:30;99813.59;;;37.98;30.43
27805;BME280;15183;51.350;11.102;2023-06-26T07:08:56;99809.06;;;38.11;30.83
27805;BME280;15183;51.350;11.102;2023-06-26T07:11:23;99821.13;;;38.25;30.71
27805;BME280;15183;51.350;11.102;2023-06-26T07:13:49;99802.16;;;38.27;30.41
27805;BME280;15183;51.350;11.102;2023-06-26T07:16:15;99811.34;;;38.47;29.60
27805;BME280;15183;51.350;11.102;2023-06-26T07:18:42;99816.28;;;38.60;29.84
27805;BME280;15183;51.350;11.102;2023-06-26T07:21:09;99810.19;;;38.72;29.97
27805;BME280;15183;51.350;11.102;2023-06-26T07:23:36;99809.16;;;38.86;29.83
27805;BME280;15183;51.350;11.102;2023-06-26T07:26:02;99805.44;;;38.97;29.67
27805;BME280;15183;51.350;11.102;2023-06-26T07:28:29;99807.22;;;39.07;29.30
27805;BME280;15183;51.350;11.102;2023-06-26T07:30:55;99798.72;;;39.18;29.38
27805;BME280;15183;51.350;11.102;2023-06-26T07:33:22;99802.75;;;39.37;29.24
27805;BME280;15183;51.350;11.102;2023-06-26T07:35:48;99808.09;;;39.48;28.97
27805;BME280;15183;51.350;11.102;2023-06-26T07:38:15;99803.19;;;39.56;28.80
27805;BME280;15183;51.350;11.102;2023-06-26T07:40:41;99805.47;;;39.61;28.89
27805;BME280;15183;51.350;11.102;2023-06-26T07:43:08;99794.22;;;39.68;28.17
27805;BME280;15183;51.350;11.102;2023-06-26T07:45:34;99794.50;;;39.74;28.44
27805;BME280;15183;51.350;11.102;2023-06-26T07:48:00;99800.31;;;39.79;28.14
27805;BME280;15183;51.350;11.102;2023-06-26T07:50:27;99793.94;;;39.83;28.27
27805;BME280;15183;51.350;11.102;2023-06-26T07:52:53;99801.50;;;39.82;28.19
27805;BME280;15183;51.350;11.102;2023-06-26T07:55:20;99788.09;;;39.77;28.06
27805;BME280;15183;51.350;11.102;2023-06-26T07:57:46;99786.69;;;39.89;27.56
27805;BME280;15183;51.350;11.102;2023-06-26T08:00:13;99784.72;;;40.06;27.81
27805;BME280;15183;51.350;11.102;2023-06-26T08:02:39;99778.94;;;40.17;27.46
27805;BME280;15183;51.350;11.102;2023-06-26T08:05:06;99766.97;;;40.20;27.45
27805;BME280;15183;51.350;11.102;2023-06-26T08:07:32;99768.22;;;40.35;27.20
27805;BME280;15183;51.350;11.102;2023-06-26T08:09:59;99762.50;;;40.43;27.93
27805;BME280;15183;51.350;11.102;2023-06-26T08:12:25;99773.69;;;40.56;27.31
27805;BME280;15183;51.350;11.102;2023-06-26T08:14:52;99774.50;;;40.73;27.51
27805;BME280;15183;51.350;11.102;2023-06-26T08:17:18;99784.28;;;40.94;27.65
27805;BME280;15183;51.350;11.102;2023-06-26T08:19:44;99771.53;;;41.09;26.57
27805;BME280;15183;51.350;11.102;2023-06-26T08:22:11;99781.19;;;41.21;26.93
27805;BME280;15183;51.350;11.102;2023-06-26T08:24:37;99774.63;;;41.28;26.71
27805;BME280;15183;51.350;11.102;2023-06-26T08:27:04;99766.66;;;41.30;26.43
27805;BME280;15183;51.350;11.102;2023-06-26T08:29:32;99777.16;;;41.52;26.42
27805;BME280;15183;51.350;11.102;2023-06-26T08:31:58;99760.19;;;41.63;25.95
27805;BME280;15183;51.350;11.102;2023-06-26T08:34:24;99766.44;;;41.80;25.55
27805;BME280;15183;51.350;11.102;2023-06-26T08:36:51;99753.41;;;41.77;25.23
27805;BME280;15183;51.350;11.102;2023-06-26T08:39:17;99757.28;;;41.79;25.34
27805;BME280;15183;51.350;11.102;2023-06-26T08:41:45;99746.16;;;41.79;25.64
27805;BME280;15183;51.350;11.102;2023-06-26T08:44:11;99752.84;;;41.82;24.99
27805;BME280;15183;51.350;11.102;2023-06-26T08:46:38;99746.50;;;41.81;25.38
27805;BME280;15183;51.350;11.102;2023-06-26T08:49:28;99757.53;;;41.98;24.93
27805;BME280;15183;51.350;11.102;2023-06-26T08:52:06;99754.28;;;42.00;24.74
27805;BME280;15183;51.350;11.102;2023-06-26T08:54:42;99760.22;;;42.02;25.64
27805;BME280;15183;51.350;11.102;2023-06-26T08:57:09;99762.09;;;42.05;25.43
27805;BME280;15183;51.350;11.102;2023-06-26T08:59:36;99748.06;;;42.08;24.60
27805;BME280;15183;51.350;11.102;2023-06-26T09:02:02;99759.78;;;42.03;24.45
27805;BME280;15183;51.350;11.102;2023-06-26T09:04:29;99747.50;;;41.88;24.64
27805;BME280;15183;51.350;11.102;2023-06-26T09:06:56;99759.19;;;41.83;25.08
27805;BME280;15183;51.350;11.102;2023-06-26T09:09:22;99752.94;;;41.78;24.66
27805;BME280;15183;51.350;11.102;2023-06-26T09:11:49;99750.38;;;41.71;24.99
27805;BME280;15183;51.350;11.102;2023-06-26T09:14:15;99730.84;;;41.45;24.86
27805;BME280;15183;51.350;11.102;2023-06-26T09:16:42;99752.31;;;41.45;24.85
27805;BME280;15183;51.350;11.102;2023-06-26T09:19:10;99756.97;;;41.35;25.27
27805;BME280;15183;51.350;11.102;2023-06-26T09:21:42;99754.63;;;41.33;25.51
27805;BME280;15183;51.350;11.102;2023-06-26T09:24:10;99742.09;;;41.42;25.04
27805;BME280;15183;51.350;11.102;2023-06-26T09:26:40;99743.66;;;41.56;25.48
27805;BME280;15183;51.350;11.102;2023-06-26T09:29:07;99747.91;;;41.60;24.72
27805;BME280;15183;51.350;11.102;2023-06-26T09:31:35;99749.81;;;41.63;25.17
27805;BME280;15183;51.350;11.102;2023-06-26T09:34:02;99735.31;;;41.56;24.75
27805;BME280;15183;51.350;11.102;2023-06-26T09:36:30;99744.31;;;41.47;24.22
27805;BME280;15183;51.350;11.102;2023-06-26T09:39:04;99721.50;;;41.09;24.58
27805;BME280;15183;51.350;11.102;2023-06-26T09:41:37;99737.19;;;40.87;24.49
27805;BME280;15183;51.350;11.102;2023-06-26T09:44:06;99726.47;;;40.56;23.74
27805;BME280;15183;51.350;11.102;2023-06-26T09:46:34;99735.94;;;40.42;23.43
27805;BME280;15183;51.350;11.102;2023-06-26T09:49:07;99733.19;;;40.05;24.29
27805;BME280;15183;51.350;11.102;2023-06-26T09:51:36;99718.81;;;39.73;24.51
27805;BME280;15183;51.350;11.102;2023-06-26T09:54:04;99728.00;;;39.70;24.50
27805;BME280;15183;51.350;11.102;2023-06-26T09:56:31;99728.78;;;39.71;23.91
27805;BME280;15183;51.350;11.102;2023-06-26T09:59:01;99720.63;;;39.63;23.89
27805;BME280;15183;51.350;11.102;2023-06-26T10:01:29;99709.28;;;39.74;24.13
27805;BME280;15183;51.350;11.102;2023-06-26T10:03:56;99701.53;;;39.86;23.69
27805;BME280;15183;51.350;11.102;2023-06-26T10:06:31;99698.00;;;40.02;23.42
27805;BME280;15183;51.350;11.102;2023-06-26T10:09:00;99711.78;;;40.22;23.30
27805;BME280;15183;51.350;11.102;2023-06-26T10:14:27;99703.56;;;40.18;22.75
27805;BME280;15183;51.350;11.102;2023-06-26T10:17:00;99704.56;;;40.08;23.52
27805;BME280;15183;51.350;11.102;2023-06-26T10:19:28;99682.91;;;40.03;22.92
27805;BME280;15183;51.350;11.102;2023-06-26T10:21:58;99689.41;;;40.13;23.50
27805;BME280;15183;51.350;11.102;2023-06-26T10:24:26;99681.16;;;40.09;22.85
27805;BME280;15183;51.350;11.102;2023-06-26T10:27:13;99670.34;;;39.98;22.71
27805;BME280;15183;51.350;11.102;2023-06-26T10:29:41;99684.91;;;40.02;23.04
27805;BME280;15183;51.350;11.102;2023-06-26T10:32:10;99658.88;;;40.13;23.43
27805;BME280;15183;51.350;11.102;2023-06-26T10:34:38;99663.44;;;40.52;22.92
27805;BME280;15183;51.350;11.102;2023-06-26T10:37:04;99653.34;;;40.75;22.72
27805;BME280;15183;51.350;11.102;2023-06-26T10:39:50;99656.56;;;41.03;22.38
27805;BME280;15183;51.350;11.102;2023-06-26T10:42:35;99670.88;;;41.31;22.34
27805;BME280;15183;51.350;11.102;2023-06-26T10:45:19;99661.44;;;41.42;22.58
27805;BME280;15183;51.350;11.102;2023-06-26T10:47:52;99654.19;;;41.57;21.93
27805;BME280;15183;51.350;11.102;2023-06-26T10:50:23;99665.34;;;41.70;22.17
27805;BME280;15183;51.350;11.102;2023-06-26T10:53:08;99649.09;;;41.81;22.01
27805;BME280;15183;51.350;11.102;2023-06-26T10:55:55;99657.31;;;41.98;21.67
27805;BME280;15183;51.350;11.102;2023-06-26T11:01:21;99645.44;;;41.72;21.11
27805;BME280;15183;51.350;11.102;2023-06-26T11:06:22;99637.75;;;41.07;21.03
27805;BME280;15183;51.350;11.102;2023-06-26T11:08:51;99638.53;;;40.95;21.76
27805;BME280;15183;51.350;11.102;2023-06-26T11:14:25;99634.75;;;41.02;21.23
27805;BME280;15183;51.350;11.102;2023-06-26T11:16:52;99624.41;;;41.02;21.82
27805;BME280;15183;51.350;11.102;2023-06-26T11:19:20;99635.94;;;41.17;21.43
27805;BME280;15183;51.350;11.102;2023-06-26T11:21:46;99628.59;;;41.23;21.86
27805;BME280;15183;51.350;11.102;2023-06-26T11:24:14;99626.91;;;41.26;21.78
27805;BME280;15183;51.350;11.102;2023-06-26T11:26:42;99619.16;;;41.47;21.83
27805;BME280;15183;51.350;11.102;2023-06-26T11:29:10;99631.06;;;41.60;21.16
27805;BME280;15183;51.350;11.102;2023-06-26T11:31:39;99628.28;;;41.60;20.83
27805;BME280;15183;51.350;11.102;2023-06-26T11:34:12;99637.16;;;41.55;20.92
27805;BME280;15183;51.350;11.102;2023-06-26T11:36:41;99630.50;;;41.65;20.87
27805;BME280;15183;51.350;11.102;2023-06-26T11:39:08;99636.28;;;41.97;21.06
27805;BME280;15183;51.350;11.102;2023-06-26T11:41:36;99627.09;;;42.22;20.52
27805;BME280;15183;51.350;11.102;2023-06-26T11:44:08;99626.81;;;42.43;21.07
27805;BME280;15183;51.350;11.102;2023-06-26T11:46:36;99627.75;;;42.62;20.24
27805;BME280;15183;51.350;11.102;2023-06-26T11:49:04;99621.75;;;42.86;20.19
27805;BME280;15183;51.350;11.102;2023-06-26T11:51:31;99618.09;;;42.98;20.68
27805;BME280;15183;51.350;11.102;2023-06-26T11:54:00;99615.63;;;43.00;19.83
27805;BME280;15183;51.350;11.102;2023-06-26T11:56:27;99631.88;;;42.79;20.09
27805;BME280;15183;51.350;11.102;2023-06-26T11:59:03;99620.91;;;42.41;20.37
27805;BME280;15183;51.350;11.102;2023-06-26T12:01:41;99617.88;;;42.00;20.68
27805;BME280;15183;51.350;11.102;2023-06-26T12:04:14;99624.50;;;41.67;20.79
27805;BME280;15183;51.350;11.102;2023-06-26T12:06:46;99621.03;;;41.37;20.54
27805;BME280;15183;51.350;11.102;2023-06-26T12:09:13;99627.59;;;41.17;21.01
27805;BME280;15183;51.350;11.102;2023-06-26T12:11:43;99624.28;;;41.06;20.87
27805;BME280;15183;51.350;11.102;2023-06-26T12:14:10;99624.88;;;41.14;21.57
27805;BME280;15183;51.350;11.102;2023-06-26T12:16:37;99639.03;;;41.19;20.80
27805;BME280;15183;51.350;11.102;2023-06-26T12:19:07;99623.31;;;41.13;21.31
27805;BME280;15183;51.350;11.102;2023-06-26T12:24:04;99626.16;;;40.66;21.51
27805;BME280;15183;51.350;11.102;2023-06-26T12:26:32;99634.56;;;40.33;22.05
27805;BME280;15183;51.350;11.102;2023-06-26T12:29:10;99639.53;;;39.92;22.75
27805;BME280;15183;51.350;11.102;2023-06-26T12:31:45;99641.88;;;39.41;23.34
27805;BME280;15183;51.350;11.102;2023-06-26T12:34:14;99671.66;;;38.96;23.75
27805;BME280;15183;51.350;11.102;2023-06-26T12:36:49;99685.91;;;38.27;24.82
27805;BME280;15183;51.350;11.102;2023-06-26T12:39:21;99697.22;;;37.50;26.80
27805;BME280;15183;51.350;11.102;2023-06-26T12:42:02;99695.84;;;36.50;27.71
27805;BME280;15183;51.350;11.102;2023-06-26T12:44:30;99721.53;;;35.69;28.75
27805;BME280;15183;51.350;11.102;2023-06-26T12:46:59;99717.00;;;35.15;28.94
27805;BME280;15183;51.350;11.102;2023-06-26T12:49:37;99710.72;;;34.64;29.69
27805;BME280;15183;51.350;11.102;2023-06-26T12:52:06;99718.56;;;34.33;30.63
27805;BME280;15183;51.350;11.102;2023-06-26T12:54:34;99722.06;;;34.15;31.10
27805;BME280;15183;51.350;11.102;2023-06-26T12:57:01;99723.16;;;33.85;32.65
27805;BME280;15183;51.350;11.102;2023-06-26T12:59:27;99746.22;;;33.59;32.78
27805;BME280;15183;51.350;11.102;2023-06-26T13:01:54;99759.38;;;33.31;33.56
27805;BME280;15183;51.350;11.102;2023-06-26T13:04:20;99737.16;;;32.91;34.30
27805;BME280;15183;51.350;11.102;2023-06-26T13:06:47;99754.41;;;32.47;34.62
27805;BME280;15183;51.350;11.102;2023-06-26T13:09:13;99753.94;;;32.07;36.31
27805;BME280;15183;51.350;11.102;2023-06-26T13:11:39;99759.50;;;31.80;36.24